sensor_id;sensor_type;location;lat;lon;timestamp;temperature;humidity
61398;DHT22;47267;48.130;-2.040;2022-08-18T00:01:45;24.80;56.30
61398;DHT22;47267;48.130;-2.040;2022-08-18T00:04:13;24.80;56.30
61398;DHT22;47267;48.130;-2.040;2022-08-18T00:06:40;24.80;56.30
61398;DHT22;47267;48.130;-2.040;2022-08-18T00:09:08;24.80;56.30
61398;DHT22;47267;48.130;-2.040;2022-08-18T00:11:39;24.80;56.30
61398;DHT22;47267;48.130;-2.040;2022-08-18T00:14:05;24.80;56.30
61398;DHT22;47267;48.130;-2.040;2022-08-18T00:16:31;24.70;56.30
61398;DHT22;47267;48.130;-2.040;2022-08-18T00:18:57;24.80;56.30
61398;DHT22;47267;48.130;-2.040;2022-08-18T00:21:23;24.80;56.40
61398;DHT22;47267;48.130;-2.040;2022-08-18T00:23:48;24.70;56.30
61398;DHT22;47267;48.130;-2.040;2022-08-18T00:26:15;24.70;56.30
61398;DHT22;47267;48.130;-2.040;2022-08-18T00:28:41;24.70;56.30
61398;DHT22;47267;48.130;-2.040;2022-08-18T00:31:06;24.70;56.30
61398;DHT22;47267;48.130;-2.040;2022-08-18T00:33:32;24.70;56.30
61398;DHT22;47267;48.130;-2.040;2022-08-18T00:35:58;24.70;56.40
61398;DHT22;47267;48.130;-2.040;2022-08-18T00:38:24;24.70;56.30
61398;DHT22;47267;48.130;-2.040;2022-08-18T00:40:51;24.70;56.40
61398;DHT22;47267;48.130;-2.040;2022-08-18T00:43:22;24.70;56.40
61398;DHT22;47267;48.130;-2.040;2022-08-18T00:45:49;24.70;56.40
61398;DHT22;47267;48.130;-2.040;2022-08-18T00:48:15;24.60;56.30
61398;DHT22;47267;48.130;-2.040;2022-08-18T00:50:43;24.60;56.30
61398;DHT22;47267;48.130;-2.040;2022-08-18T00:55:51;24.60;56.30
61398;DHT22;47267;48.130;-2.040;2022-08-18T00:58:24;24.60;56.30
61398;DHT22;47267;48.130;-2.040;2022-08-18T01:00:51;24.60;56.30
61398;DHT22;47267;48.130;-2.040;2022-08-18T01:03:19;24.60;56.40
61398;DHT22;47267;48.130;-2.040;2022-08-18T01:06:47;24.60;56.40
61398;DHT22;47267;48.130;-2.040;2022-08-18T01:08:53;24.60;56.40
61398;DHT22;47267;48.130;-2.040;2022-08-18T01:11:19;24.60;56.40
61398;DHT22;47267;48.130;-2.040;2022-08-18T01:13:44;24.50;56.30
61398;DHT22;47267;48.130;-2.040;2022-08-18T01:16:10;24.60;56.30
61398;DHT22;47267;48.130;-2.040;2022-08-18T01:18:55;24.60;56.40
61398;DHT22;47267;48.130;-2.040;2022-08-18T01:21:48;24.50;56.30
61398;DHT22;47267;48.130;-2.040;2022-08-18T01:24:16;24.50;56.40
61398;DHT22;47267;48.130;-2.040;2022-08-18T01:26:43;24.50;56.40
61398;DHT22;47267;48.130;-2.040;2022-08-18T01:29:17;24.50;56.30
61398;DHT22;47267;48.130;-2.040;2022-08-18T01:31:48;24.50;56.40
61398;DHT22;47267;48.130;-2.040;2022-08-18T01:34:16;24.50;56.40
61398;DHT22;47267;48.130;-2.040;2022-08-18T01:36:46;24.50;56.40
61398;DHT22;47267;48.130;-2.040;2022-08-18T01:39:12;24.50;56.30
61398;DHT22;47267;48.130;-2.040;2022-08-18T01:41:39;24.40;56.30
61398;DHT22;47267;48.130;-2.040;2022-08-18T01:44:05;24.40;56.30
61398;DHT22;47267;48.130;-2.040;2022-08-18T01:46:36;24.40;56.30
61398;DHT22;47267;48.130;-2.040;2022-08-18T01:49:03;24.40;56.30
61398;DHT22;47267;48.130;-2.040;2022-08-18T01:51:31;24.40;56.30
61398;DHT22;47267;48.130;-2.040;2022-08-18T01:53:58;24.40;56.30
61398;DHT22;47267;48.130;-2.040;2022-08-18T01:56:24;24.40;56.40
61398;DHT22;47267;48.130;-2.040;2022-08-18T01:58:52;24.40;56.40
61398;DHT22;47267;48.130;-2.040;2022-08-18T02:01:19;24.40;56.40
61398;DHT22;47267;48.130;-2.040;2022-08-18T02:03:48;24.40;56.40
61398;DHT22;47267;48.130;-2.040;2022-08-18T02:06:16;24.40;57.00
61398;DHT22;47267;48.130;-2.040;2022-08-18T02:08:44;24.40;56.40
61398;DHT22;47267;48.130;-2.040;2022-08-18T02:11:10;24.30;56.40
61398;DHT22;47267;48.130;-2.040;2022-08-18T02:13:37;24.40;56.40
61398;DHT22;47267;48.130;-2.040;2022-08-18T02:16:03;24.30;56.40
61398;DHT22;47267;48.130;-2.040;2022-08-18T02:18:35;24.30;56.40
61398;DHT22;47267;48.130;-2.040;2022-08-18T02:21:14;24.30;56.40
61398;DHT22;47267;48.130;-2.040;2022-08-18T02:23:41;24.30;56.40
61398;DHT22;47267;48.130;-2.040;2022-08-18T02:26:10;24.30;56.40
61398;DHT22;47267;48.130;-2.040;2022-08-18T02:28:37;24.30;56.40
61398;DHT22;47267;48.130;-2.040;2022-08-18T02:31:08;24.30;56.40
61398;DHT22;47267;48.130;-2.040;2022-08-18T02:33:34;24.30;56.40
61398;DHT22;47267;48.130;-2.040;2022-08-18T02:36:00;24.30;56.40
61398;DHT22;47267;48.130;-2.040;2022-08-18T02:38:27;24.20;56.40
61398;DHT22;47267;48.130;-2.040;2022-08-18T02:40:58;24.20;56.40
61398;DHT22;47267;48.130;-2.040;2022-08-18T02:43:25;24.20;56.40
61398;DHT22;47267;48.130;-2.040;2022-08-18T02:45:52;24.20;56.40
61398;DHT22;47267;48.130;-2.040;2022-08-18T02:48:17;24.20;56.40
61398;DHT22;47267;48.130;-2.040;2022-08-18T02:51:13;24.20;56.40
61398;DHT22;47267;48.130;-2.040;2022-08-18T02:53:43;24.20;56.40
61398;DHT22;47267;48.130;-2.040;2022-08-18T02:56:18;24.20;56.40
61398;DHT22;47267;48.130;-2.040;2022-08-18T02:58:50;24.20;56.40
61398;DHT22;47267;48.130;-2.040;2022-08-18T03:01:37;24.20;56.40
61398;DHT22;47267;48.130;-2.040;2022-08-18T03:04:08;24.20;56.40
61398;DHT22;47267;48.130;-2.040;2022-08-18T03:06:36;24.20;56.40
61398;DHT22;47267;48.130;-2.040;2022-08-18T03:09:04;24.20;56.40
61398;DHT22;47267;48.130;-2.040;2022-08-18T03:11:30;24.10;56.40
61398;DHT22;47267;48.130;-2.040;2022-08-18T03:13:56;24.10;56.40
61398;DHT22;47267;48.130;-2.040;2022-08-18T03:16:22;24.10;56.40
61398;DHT22;47267;48.130;-2.040;2022-08-18T03:18:50;24.10;56.40
61398;DHT22;47267;48.130;-2.040;2022-08-18T03:21:19;24.10;56.40
61398;DHT22;47267;48.130;-2.040;2022-08-18T03:23:49;24.10;56.40
61398;DHT22;47267;48.130;-2.040;2022-08-18T03:26:17;24.10;56.40
61398;DHT22;47267;48.130;-2.040;2022-08-18T03:28:45;24.10;56.40
61398;DHT22;47267;48.130;-2.040;2022-08-18T03:31:12;24.10;56.50
61398;DHT22;47267;48.130;-2.040;2022-08-18T03:33:40;24.10;56.50
61398;DHT22;47267;48.130;-2.040;2022-08-18T03:36:16;24.10;56.50
61398;DHT22;47267;48.130;-2.040;2022-08-18T03:38:43;24.10;56.50
61398;DHT22;47267;48.130;-2.040;2022-08-18T03:41:11;24.10;56.50
61398;DHT22;47267;48.130;-2.040;2022-08-18T03:43:38;24.10;56.50
61398;DHT22;47267;48.130;-2.040;2022-08-18T03:46:06;24.10;56.50
61398;DHT22;47267;48.130;-2.040;2022-08-18T03:48:34;24.10;56.60
61398;DHT22;47267;48.130;-2.040;2022-08-18T03:51:07;24.10;56.50
61398;DHT22;47267;48.130;-2.040;2022-08-18T03:53:35;24.10;56.50
61398;DHT22;47267;48.130;-2.040;2022-08-18T03:56:01;24.10;56.60
61398;DHT22;47267;48.130;-2.040;2022-08-18T03:58:30;24.00;56.50
61398;DHT22;47267;48.130;-2.040;2022-08-18T04:00:56;24.00;56.50
61398;DHT22;47267;48.130;-2.040;2022-08-18T04:03:22;24.00;56.50
61398;DHT22;47267;48.130;-2.040;2022-08-18T04:05:49;24.00;56.50
61398;DHT22;47267;48.130;-2.040;2022-08-18T04:08:15;24.00;56.50
61398;DHT22;47267;48.130;-2.040;2022-08-18T04:10:42;24.00;56.50
61398;DHT22;47267;48.130;-2.040;2022-08-18T04:13:08;24.00;56.50
61398;DHT22;47267;48.130;-2.040;2022-08-18T04:15:35;24.00;56.50
61398;DHT22;47267;48.130;-2.040;2022-08-18T04:18:01;24.00;56.50
61398;DHT22;47267;48.130;-2.040;2022-08-18T04:20:33;24.00;56.60
61398;DHT22;47267;48.130;-2.040;2022-08-18T04:22:59;24.00;56.50
61398;DHT22;47267;48.130;-2.040;2022-08-18T04:25:25;24.00;56.50
61398;DHT22;47267;48.130;-2.040;2022-08-18T04:27:52;23.90;56.60
61398;DHT22;47267;48.130;-2.040;2022-08-18T04:30:22;23.90;56.50
61398;DHT22;47267;48.130;-2.040;2022-08-18T04:32:48;23.90;56.50
61398;DHT22;47267;48.130;-2.040;2022-08-18T04:35:15;23.90;56.50
61398;DHT22;47267;48.130;-2.040;2022-08-18T04:37:41;23.90;56.50
61398;DHT22;47267;48.130;-2.040;2022-08-18T04:40:09;23.90;56.50
61398;DHT22;47267;48.130;-2.040;2022-08-18T04:42:35;23.90;56.60
61398;DHT22;47267;48.130;-2.040;2022-08-18T04:45:02;23.90;56.50
61398;DHT22;47267;48.130;-2.040;2022-08-18T04:47:28;23.90;56.60
61398;DHT22;47267;48.130;-2.040;2022-08-18T04:49:53;23.90;56.60
61398;DHT22;47267;48.130;-2.040;2022-08-18T04:52:19;23.90;56.60
61398;DHT22;47267;48.130;-2.040;2022-08-18T04:55:04;23.90;56.60
61398;DHT22;47267;48.130;-2.040;2022-08-18T04:57:30;23.90;56.60
61398;DHT22;47267;48.130;-2.040;2022-08-18T04:59:58;23.90;56.60
61398;DHT22;47267;48.130;-2.040;2022-08-18T05:02:24;23.90;56.60
61398;DHT22;47267;48.130;-2.040;2022-08-18T05:04:49;23.90;56.60
61398;DHT22;47267;48.130;-2.040;2022-08-18T05:07:18;23.90;56.60
61398;DHT22;47267;48.130;-2.040;2022-08-18T05:09:45;23.90;56.60
61398;DHT22;47267;48.130;-2.040;2022-08-18T05:12:12;23.80;56.50
61398;DHT22;47267;48.130;-2.040;2022-08-18T05:14:40;23.80;56.60
61398;DHT22;47267;48.130;-2.040;2022-08-18T05:17:06;23.80;56.60
61398;DHT22;47267;48.130;-2.040;2022-08-18T05:19:32;23.80;56.60
61398;DHT22;47267;48.130;-2.040;2022-08-18T05:22:00;23.80;56.60
61398;DHT22;47267;48.130;-2.040;2022-08-18T05:24:27;23.80;56.60
61398;DHT22;47267;48.130;-2.040;2022-08-18T05:26:53;23.80;56.60
61398;DHT22;47267;48.130;-2.040;2022-08-18T05:29:20;23.80;56.60
61398;DHT22;47267;48.130;-2.040;2022-08-18T05:31:50;23.80;56.60
61398;DHT22;47267;48.130;-2.040;2022-08-18T05:34:18;23.80;56.60
61398;DHT22;47267;48.130;-2.040;2022-08-18T05:44:17;23.80;56.60
61398;DHT22;47267;48.130;-2.040;2022-08-18T05:46:53;23.70;56.60
61398;DHT22;47267;48.130;-2.040;2022-08-18T05:49:20;23.80;56.70
61398;DHT22;47267;48.130;-2.040;2022-08-18T05:52:08;23.80;56.70
61398;DHT22;47267;48.130;-2.040;2022-08-18T05:55:05;23.70;56.60
61398;DHT22;47267;48.130;-2.040;2022-08-18T05:58:10;23.70;56.60
61398;DHT22;47267;48.130;-2.040;2022-08-18T06:00:38;23.70;56.60
61398;DHT22;47267;48.130;-2.040;2022-08-18T06:03:21;23.70;56.60
61398;DHT22;47267;48.130;-2.040;2022-08-18T06:05:58;23.70;56.60
61398;DHT22;47267;48.130;-2.040;2022-08-18T06:08:35;23.70;56.70
61398;DHT22;47267;48.130;-2.040;2022-08-18T06:11:02;23.70;56.50
61398;DHT22;47267;48.130;-2.040;2022-08-18T06:13:30;23.70;56.50
61398;DHT22;47267;48.130;-2.040;2022-08-18T06:16:26;23.70;56.50
61398;DHT22;47267;48.130;-2.040;2022-08-18T06:19:02;23.70;56.50
61398;DHT22;47267;48.130;-2.040;2022-08-18T06:21:50;23.70;56.50
61398;DHT22;47267;48.130;-2.040;2022-08-18T06:24:49;23.70;56.60
61398;DHT22;47267;48.130;-2.040;2022-08-18T06:30:18;23.70;56.60
61398;DHT22;47267;48.130;-2.040;2022-08-18T06:38:06;23.70;56.60
61398;DHT22;47267;48.130;-2.040;2022-08-18T06:41:32;23.70;56.60
61398;DHT22;47267;48.130;-2.040;2022-08-18T06:46:48;23.60;56.60
61398;DHT22;47267;48.130;-2.040;2022-08-18T06:51:50;23.60;56.70
61398;DHT22;47267;48.130;-2.040;2022-08-18T06:59:26;23.60;56.80
61398;DHT22;47267;48.130;-2.040;2022-08-18T07:01:57;23.60;56.80
61398;DHT22;47267;48.130;-2.040;2022-08-18T07:04:39;23.60;56.80
61398;DHT22;47267;48.130;-2.040;2022-08-18T07:07:30;23.60;56.80
61398;DHT22;47267;48.130;-2.040;2022-08-18T07:09:56;23.60;56.80
61398;DHT22;47267;48.130;-2.040;2022-08-18T07:12:27;23.60;56.80
61398;DHT22;47267;48.130;-2.040;2022-08-18T07:14:56;23.60;56.80
61398;DHT22;47267;48.130;-2.040;2022-08-18T07:17:34;23.60;56.90
61398;DHT22;47267;48.130;-2.040;2022-08-18T07:20:09;23.60;56.90
61398;DHT22;47267;48.130;-2.040;2022-08-18T07:22:59;23.60;56.80
61398;DHT22;47267;48.130;-2.040;2022-08-18T07:25:31;23.60;57.00
61398;DHT22;47267;48.130;-2.040;2022-08-18T07:27:58;23.60;57.00
61398;DHT22;47267;48.130;-2.040;2022-08-18T07:30:28;23.60;57.00
61398;DHT22;47267;48.130;-2.040;2022-08-18T07:33:17;23.60;57.00
61398;DHT22;47267;48.130;-2.040;2022-08-18T07:35:48;23.60;57.10
61398;DHT22;47267;48.130;-2.040;2022-08-18T07:41:04;23.60;57.20
61398;DHT22;47267;48.130;-2.040;2022-08-18T07:43:52;23.60;57.20
61398;DHT22;47267;48.130;-2.040;2022-08-18T07:49:20;23.60;57.30
61398;DHT22;47267;48.130;-2.040;2022-08-18T07:57:44;23.60;57.50
61398;DHT22;47267;48.130;-2.040;2022-08-18T08:00:36;23.70;57.70
61398;DHT22;47267;48.130;-2.040;2022-08-18T08:08:24;23.60;57.80
61398;DHT22;47267;48.130;-2.040;2022-08-18T08:22:29;23.60;57.80
61398;DHT22;47267;48.130;-2.040;2022-08-18T08:30:20;23.70;58.00
61398;DHT22;47267;48.130;-2.040;2022-08-18T08:33:19;23.60;57.90
61398;DHT22;47267;48.130;-2.040;2022-08-18T08:41:06;23.60;58.00
61398;DHT22;47267;48.130;-2.040;2022-08-18T08:43:46;23.70;58.00
61398;DHT22;47267;48.130;-2.040;2022-08-18T08:46:21;23.60;57.90
61398;DHT22;47267;48.130;-2.040;2022-08-18T08:48:55;23.70;58.00
61398;DHT22;47267;48.130;-2.040;2022-08-18T08:51:40;23.60;57.90
61398;DHT22;47267;48.130;-2.040;2022-08-18T08:54:25;23.70;58.10
61398;DHT22;47267;48.130;-2.040;2022-08-18T08:56:55;23.70;58.10
61398;DHT22;47267;48.130;-2.040;2022-08-18T08:59:24;23.70;58.10
61398;DHT22;47267;48.130;-2.040;2022-08-18T09:04:59;23.70;58.20
61398;DHT22;47267;48.130;-2.040;2022-08-18T09:24:24;23.70;58.30
61398;DHT22;47267;48.130;-2.040;2022-08-18T09:38:07;23.70;58.30
61398;DHT22;47267;48.130;-2.040;2022-08-18T09:41:26;23.70;58.40
61398;DHT22;47267;48.130;-2.040;2022-08-18T10:10:24;23.80;58.70
61398;DHT22;47267;48.130;-2.040;2022-08-18T10:17:58;23.80;58.90
61398;DHT22;47267;48.130;-2.040;2022-08-18T10:24:18;23.90;59.00
61398;DHT22;47267;48.130;-2.040;2022-08-18T10:28:59;23.90;59.30
61398;DHT22;47267;48.130;-2.040;2022-08-18T10:31:27;23.90;59.30
61398;DHT22;47267;48.130;-2.040;2022-08-18T10:36:57;23.90;59.50
61398;DHT22;47267;48.130;-2.040;2022-08-18T10:39:52;23.90;59.40
61398;DHT22;47267;48.130;-2.040;2022-08-18T10:42:27;23.90;59.50
61398;DHT22;47267;48.130;-2.040;2022-08-18T10:45:33;24.00;59.50
61398;DHT22;47267;48.130;-2.040;2022-08-18T10:48:11;24.00;59.70
61398;DHT22;47267;48.130;-2.040;2022-08-18T10:56:00;24.00;59.50
61398;DHT22;47267;48.130;-2.040;2022-08-18T11:03:59;24.00;59.90
61398;DHT22;47267;48.130;-2.040;2022-08-18T11:06:24;24.00;60.10
61398;DHT22;47267;48.130;-2.040;2022-08-18T11:09:05;24.10;60.00
61398;DHT22;47267;48.130;-2.040;2022-08-18T11:11:40;24.00;59.90
61398;DHT22;47267;48.130;-2.040;2022-08-18T11:19:49;24.10;60.20
61398;DHT22;47267;48.130;-2.040;2022-08-18T11:22:28;24.10;60.20
61398;DHT22;47267;48.130;-2.040;2022-08-18T11:24:55;24.10;60.10
61398;DHT22;47267;48.130;-2.040;2022-08-18T11:27:24;24.10;60.20
61398;DHT22;47267;48.130;-2.040;2022-08-18T11:29:50;24.10;60.20
61398;DHT22;47267;48.130;-2.040;2022-08-18T11:32:30;24.10;60.20
61398;DHT22;47267;48.130;-2.040;2022-08-18T11:35:00;24.10;60.40
61398;DHT22;47267;48.130;-2.040;2022-08-18T11:38:02;24.10;60.30
61398;DHT22;47267;48.130;-2.040;2022-08-18T11:40:44;24.10;60.20
61398;DHT22;47267;48.130;-2.040;2022-08-18T11:43:29;24.10;60.30
61398;DHT22;47267;48.130;-2.040;2022-08-18T11:46:14;24.10;60.30
61398;DHT22;47267;48.130;-2.040;2022-08-18T11:48:48;24.20;60.30
61398;DHT22;47267;48.130;-2.040;2022-08-18T11:53:56;24.20;60.30
61398;DHT22;47267;48.130;-2.040;2022-08-18T11:59:00;24.20;60.40
61398;DHT22;47267;48.130;-2.040;2022-08-18T12:01:31;24.20;60.40
61398;DHT22;47267;48.130;-2.040;2022-08-18T12:06:54;24.20;60.40
61398;DHT22;47267;48.130;-2.040;2022-08-18T12:09:40;24.20;60.50
61398;DHT22;47267;48.130;-2.040;2022-08-18T12:12:27;24.20;60.50
61398;DHT22;47267;48.130;-2.040;2022-08-18T12:15:03;24.20;60.40
61398;DHT22;47267;48.130;-2.040;2022-08-18T12:17:31;24.20;60.50
61398;DHT22;47267;48.130;-2.040;2022-08-18T12:20:00;24.20;60.50
61398;DHT22;47267;48.130;-2.040;2022-08-18T12:22:29;24.20;60.50
61398;DHT22;47267;48.130;-2.040;2022-08-18T12:24:56;24.20;60.60
61398;DHT22;47267;48.130;-2.040;2022-08-18T12:27:28;24.20;60.50
61398;DHT22;47267;48.130;-2.040;2022-08-18T12:29:56;24.20;60.50
61398;DHT22;47267;48.130;-2.040;2022-08-18T12:32:25;24.30;60.50
61398;DHT22;47267;48.130;-2.040;2022-08-18T12:34:58;24.20;60.60
61398;DHT22;47267;48.130;-2.040;2022-08-18T12:37:30;24.30;60.50
61398;DHT22;47267;48.130;-2.040;2022-08-18T12:39:59;24.30;60.50
61398;DHT22;47267;48.130;-2.040;2022-08-18T12:42:26;24.30;60.50
61398;DHT22;47267;48.130;-2.040;2022-08-18T12:44:52;24.30;60.70
61398;DHT22;47267;48.130;-2.040;2022-08-18T12:47:21;24.30;60.60
61398;DHT22;47267;48.130;-2.040;2022-08-18T12:49:48;24.30;60.50
61398;DHT22;47267;48.130;-2.040;2022-08-18T12:52:15;24.30;60.50
61398;DHT22;47267;48.130;-2.040;2022-08-18T12:54:40;24.30;60.50
61398;DHT22;47267;48.130;-2.040;2022-08-18T12:57:29;24.30;60.50
61398;DHT22;47267;48.130;-2.040;2022-08-18T12:59:55;24.30;60.50
61398;DHT22;47267;48.130;-2.040;2022-08-18T13:02:21;24.30;60.50
61398;DHT22;47267;48.130;-2.040;2022-08-18T13:04:47;24.40;60.50
61398;DHT22;47267;48.130;-2.040;2022-08-18T13:07:14;24.40;60.60
61398;DHT22;47267;48.130;-2.040;2022-08-18T13:09:42;24.40;60.60
61398;DHT22;47267;48.130;-2.040;2022-08-18T13:12:09;24.40;60.50
61398;DHT22;47267;48.130;-2.040;2022-08-18T13:14:39;24.40;60.50
61398;DHT22;47267;48.130;-2.040;2022-08-18T13:17:05;24.40;60.50
61398;DHT22;47267;48.130;-2.040;2022-08-18T13:19:30;24.40;60.50
61398;DHT22;47267;48.130;-2.040;2022-08-18T13:21:57;24.40;60.50
61398;DHT22;47267;48.130;-2.040;2022-08-18T13:24:25;24.40;60.50
61398;DHT22;47267;48.130;-2.040;2022-08-18T13:26:54;24.40;60.50
61398;DHT22;47267;48.130;-2.040;2022-08-18T13:29:20;24.40;60.50
61398;DHT22;47267;48.130;-2.040;2022-08-18T13:31:52;24.40;60.40
61398;DHT22;47267;48.130;-2.040;2022-08-18T13:34:23;24.40;60.40
61398;DHT22;47267;48.130;-2.040;2022-08-18T13:36:49;24.40;60.40
61398;DHT22;47267;48.130;-2.040;2022-08-18T13:39:23;24.40;60.40
61398;DHT22;47267;48.130;-2.040;2022-08-18T13:41:50;24.40;60.40
61398;DHT22;47267;48.130;-2.040;2022-08-18T13:44:21;24.40;60.40
61398;DHT22;47267;48.130;-2.040;2022-08-18T13:46:48;24.40;60.40
61398;DHT22;47267;48.130;-2.040;2022-08-18T13:49:18;24.40;60.40
61398;DHT22;47267;48.130;-2.040;2022-08-18T13:51:45;24.40;60.30
61398;DHT22;47267;48.130;-2.040;2022-08-18T13:54:24;24.40;60.30
61398;DHT22;47267;48.130;-2.040;2022-08-18T13:56:51;24.50;60.30
61398;DHT22;47267;48.130;-2.040;2022-08-18T13:59:19;24.40;60.20
61398;DHT22;47267;48.130;-2.040;2022-08-18T14:01:49;24.50;60.30
61398;DHT22;47267;48.130;-2.040;2022-08-18T14:04:16;24.50;60.30
61398;DHT22;47267;48.130;-2.040;2022-08-18T14:06:42;24.50;60.30
61398;DHT22;47267;48.130;-2.040;2022-08-18T14:09:08;24.50;60.30
61398;DHT22;47267;48.130;-2.040;2022-08-18T14:11:35;24.50;60.30
61398;DHT22;47267;48.130;-2.040;2022-08-18T14:14:02;24.50;60.30
61398;DHT22;47267;48.130;-2.040;2022-08-18T14:16:31;24.50;60.30
61398;DHT22;47267;48.130;-2.040;2022-08-18T14:18:57;24.50;60.30
61398;DHT22;47267;48.130;-2.040;2022-08-18T14:21:47;24.50;60.20
61398;DHT22;47267;48.130;-2.040;2022-08-18T14:24:33;24.60;60.20
61398;DHT22;47267;48.130;-2.040;2022-08-18T14:27:23;24.60;60.20
61398;DHT22;47267;48.130;-2.040;2022-08-18T14:29:48;24.60;60.20
61398;DHT22;47267;48.130;-2.040;2022-08-18T14:32:19;24.60;60.20
61398;DHT22;47267;48.130;-2.040;2022-08-18T14:34:46;24.60;60.20
61398;DHT22;47267;48.130;-2.040;2022-08-18T14:37:19;24.60;60.20
61398;DHT22;47267;48.130;-2.040;2022-08-18T14:39:45;24.60;60.20
61398;DHT22;47267;48.130;-2.040;2022-08-18T14:42:15;24.60;60.10
61398;DHT22;47267;48.130;-2.040;2022-08-18T14:44:43;24.60;60.10
61398;DHT22;47267;48.130;-2.040;2022-08-18T14:47:10;24.70;60.20
61398;DHT22;47267;48.130;-2.040;2022-08-18T14:49:37;24.70;60.20
61398;DHT22;47267;48.130;-2.040;2022-08-18T14:52:06;24.70;61.00
61398;DHT22;47267;48.130;-2.040;2022-08-18T14:54:33;24.70;61.10
61398;DHT22;47267;48.130;-2.040;2022-08-18T14:56:59;24.80;61.30
61398;DHT22;47267;48.130;-2.040;2022-08-18T14:59:30;24.80;61.30
61398;DHT22;47267;48.130;-2.040;2022-08-18T15:01:57;24.80;61.20
61398;DHT22;47267;48.130;-2.040;2022-08-18T15:04:23;24.80;61.70
61398;DHT22;47267;48.130;-2.040;2022-08-18T15:06:50;24.90;61.50
61398;DHT22;47267;48.130;-2.040;2022-08-18T15:09:16;24.90;61.60
61398;DHT22;47267;48.130;-2.040;2022-08-18T15:11:42;24.90;61.70
61398;DHT22;47267;48.130;-2.040;2022-08-18T15:14:07;25.00;61.70
61398;DHT22;47267;48.130;-2.040;2022-08-18T15:16:35;25.00;61.70
61398;DHT22;47267;48.130;-2.040;2022-08-18T15:19:03;25.00;61.40
61398;DHT22;47267;48.130;-2.040;2022-08-18T15:21:29;25.10;61.10
61398;DHT22;47267;48.130;-2.040;2022-08-18T15:24:15;25.10;61.30
61398;DHT22;47267;48.130;-2.040;2022-08-18T15:27:02;25.10;60.90
61398;DHT22;47267;48.130;-2.040;2022-08-18T15:29:29;25.20;61.00
61398;DHT22;47267;48.130;-2.040;2022-08-18T15:32:01;25.20;61.10
61398;DHT22;47267;48.130;-2.040;2022-08-18T15:34:27;25.20;60.20
61398;DHT22;47267;48.130;-2.040;2022-08-18T15:36:54;25.30;60.00
61398;DHT22;47267;48.130;-2.040;2022-08-18T15:39:21;25.30;59.70
61398;DHT22;47267;48.130;-2.040;2022-08-18T15:41:47;25.40;59.60
61398;DHT22;47267;48.130;-2.040;2022-08-18T15:44:15;25.40;59.50
61398;DHT22;47267;48.130;-2.040;2022-08-18T15:46:42;25.40;59.20
61398;DHT22;47267;48.130;-2.040;2022-08-18T15:49:11;25.50;59.20
61398;DHT22;47267;48.130;-2.040;2022-08-18T15:51:38;25.50;59.10
61398;DHT22;47267;48.130;-2.040;2022-08-18T15:54:06;25.50;58.90
61398;DHT22;47267;48.130;-2.040;2022-08-18T15:56:32;25.50;58.80
61398;DHT22;47267;48.130;-2.040;2022-08-18T15:58:59;25.60;58.70
61398;DHT22;47267;48.130;-2.040;2022-08-18T16:01:32;25.60;58.80
61398;DHT22;47267;48.130;-2.040;2022-08-18T16:04:05;25.60;58.90
61398;DHT22;47267;48.130;-2.040;2022-08-18T16:06:32;25.60;58.70
61398;DHT22;47267;48.130;-2.040;2022-08-18T16:09:00;25.60;58.70
61398;DHT22;47267;48.130;-2.040;2022-08-18T16:11:28;25.60;58.80
61398;DHT22;47267;48.130;-2.040;2022-08-18T16:13:54;25.60;58.80
61398;DHT22;47267;48.130;-2.040;2022-08-18T16:16:22;25.60;58.60
61398;DHT22;47267;48.130;-2.040;2022-08-18T16:18:50;25.60;58.70
61398;DHT22;47267;48.130;-2.040;2022-08-18T16:21:20;25.70;58.50
61398;DHT22;47267;48.130;-2.040;2022-08-18T16:23:49;25.70;58.40
61398;DHT22;47267;48.130;-2.040;2022-08-18T16:26:17;25.70;58.10
61398;DHT22;47267;48.130;-2.040;2022-08-18T16:28:45;25.70;58.00
61398;DHT22;47267;48.130;-2.040;2022-08-18T16:31:13;25.70;58.20
61398;DHT22;47267;48.130;-2.040;2022-08-18T16:33:41;25.70;57.80
61398;DHT22;47267;48.130;-2.040;2022-08-18T16:36:08;25.80;57.90
61398;DHT22;47267;48.130;-2.040;2022-08-18T16:38:36;25.80;58.10
61398;DHT22;47267;48.130;-2.040;2022-08-18T16:41:08;25.80;58.00
61398;DHT22;47267;48.130;-2.040;2022-08-18T16:43:46;25.80;58.10
61398;DHT22;47267;48.130;-2.040;2022-08-18T16:46:15;25.80;58.00
61398;DHT22;47267;48.130;-2.040;2022-08-18T16:48:41;25.90;58.10
61398;DHT22;47267;48.130;-2.040;2022-08-18T16:51:13;25.90;58.00
61398;DHT22;47267;48.130;-2.040;2022-08-18T16:53:39;26.00;58.00
61398;DHT22;47267;48.130;-2.040;2022-08-18T16:56:13;26.00;58.00
61398;DHT22;47267;48.130;-2.040;2022-08-18T16:58:39;26.10;57.90
61398;DHT22;47267;48.130;-2.040;2022-08-18T17:01:23;26.10;57.80
61398;DHT22;47267;48.130;-2.040;2022-08-18T17:04:08;26.10;57.60
61398;DHT22;47267;48.130;-2.040;2022-08-18T17:06:37;26.20;57.60
61398;DHT22;47267;48.130;-2.040;2022-08-18T17:09:03;26.20;57.00
61398;DHT22;47267;48.130;-2.040;2022-08-18T17:11:30;26.20;57.50
61398;DHT22;47267;48.130;-2.040;2022-08-18T17:13:58;26.20;57.00
61398;DHT22;47267;48.130;-2.040;2022-08-18T17:16:25;26.20;57.60
61398;DHT22;47267;48.130;-2.040;2022-08-18T17:18:53;26.20;57.60
61398;DHT22;47267;48.130;-2.040;2022-08-18T17:21:24;26.20;57.60
61398;DHT22;47267;48.130;-2.040;2022-08-18T17:23:55;26.20;57.60
61398;DHT22;47267;48.130;-2.040;2022-08-18T17:29:04;26.20;57.60
61398;DHT22;47267;48.130;-2.040;2022-08-18T17:31:33;26.20;57.60
61398;DHT22;47267;48.130;-2.040;2022-08-18T17:34:06;26.20;57.50
61398;DHT22;47267;48.130;-2.040;2022-08-18T17:36:46;26.20;57.60
61398;DHT22;47267;48.130;-2.040;2022-08-18T17:39:16;26.20;57.60
61398;DHT22;47267;48.130;-2.040;2022-08-18T17:41:43;26.30;57.60
61398;DHT22;47267;48.130;-2.040;2022-08-18T17:44:30;26.30;57.60
61398;DHT22;47267;48.130;-2.040;2022-08-18T17:47:00;26.30;57.60
61398;DHT22;47267;48.130;-2.040;2022-08-18T17:49:31;26.30;58.20
61398;DHT22;47267;48.130;-2.040;2022-08-18T17:52:19;26.30;57.60
61398;DHT22;47267;48.130;-2.040;2022-08-18T17:54:49;26.30;57.60
61398;DHT22;47267;48.130;-2.040;2022-08-18T17:57:28;26.30;57.60
61398;DHT22;47267;48.130;-2.040;2022-08-18T18:00:09;26.30;57.60
61398;DHT22;47267;48.130;-2.040;2022-08-18T18:02:42;26.30;57.50
61398;DHT22;47267;48.130;-2.040;2022-08-18T18:05:17;26.30;57.50
61398;DHT22;47267;48.130;-2.040;2022-08-18T18:10:13;26.30;57.50
61398;DHT22;47267;48.130;-2.040;2022-08-18T18:12:39;26.30;57.50
61398;DHT22;47267;48.130;-2.040;2022-08-18T18:15:11;26.30;57.50
61398;DHT22;47267;48.130;-2.040;2022-08-18T18:17:40;26.30;57.50
61398;DHT22;47267;48.130;-2.040;2022-08-18T18:20:31;26.30;57.40
61398;DHT22;47267;48.130;-2.040;2022-08-18T18:23:31;26.30;57.40
61398;DHT22;47267;48.130;-2.040;2022-08-18T18:25:57;26.30;57.40
61398;DHT22;47267;48.130;-2.040;2022-08-18T18:28:30;26.30;57.40
61398;DHT22;47267;48.130;-2.040;2022-08-18T18:30:58;26.40;57.50